Schrunz, Liechtenstein
Current Conditions -  °F | °C
As of 9:50 PM on Monday 22 Dec 2014 (Local Time) from LSZR Reporting Station
Clear Clear  
Wind Chill: 30°   Ceiling: Unl
Heat Index: 34°   Visibility: 6mi
Dew Point: 30°   Wind: 5mph
Humidity: 87%   Direction: 230°SW
Pressure: 30.36"   Gusts: NA
Location:  47.08°N, 9.93°E
Report Text: LSZR 221950Z 23004KT CAVOK 01/M01 Q1028 NOSIG RMK P
Loading
Personal Weather Stations






























Interactive Weather Map New forecast layout! Learn more

10-Day Weather Forecast

Advertisements
Track Severe Weather on mobile